Time;durP1;ratioP1;P1;durP2;ratioP2;P2;SDS_P1;SDS_P2;PMS_P1;PMS_P2;Temp;Humidity;BMP_temperature;BMP_pressure;BME280_temperature;BME280_humidity;BME280_pressure;Samples;Min_cycle;Max_cycle;Signal;HPM_P1;HPM_P2
2022/03/12 00:01:37;;;;;;;10.82;4.13;;;;;;;;;;4989239;28;20026;-62
2022/03/12 00:04:06;;;;;;;5.45;3.42;;;;;;;;;;4976112;28;20442;-62
2022/03/12 00:06:34;;;;;;;9.13;3.90;;;;;;;;;;4973194;28;20049;-61
2022/03/12 00:08:59;;;;;;;7.63;3.65;;;;;;;;;;4974605;28;20048;-62
2022/03/12 00:11:30;;;;;;;12.10;3.40;;;;;;;;;;4972254;28;20042;-66
2022/03/12 00:14:07;;;;;;;10.40;4.55;;;;;;;;;;4974941;28;20058;-63
2022/03/12 00:16:36;;;;;;;8.85;4.10;;;;;;;;;;4972945;28;20034;-63
2022/03/12 00:19:02;;;;;;;12.48;4.40;;;;;;;;;;4973572;28;20071;-66
2022/03/12 00:21:35;;;;;;;7.20;3.72;;;;;;;;;;4957900;28;20054;-64
2022/03/12 00:24:02;;;;;;;;;;;;;;;;;;4973454;28;20305;-62
2022/03/12 00:26:29;;;;;;;7.78;3.65;;;;;;;;;;4971742;28;19925;-64
2022/03/12 00:28:57;;;;;;;12.13;4.90;;;;;;;;;;4975807;28;20050;-66
2022/03/12 00:31:23;;;;;;;6.43;3.22;;;;;;;;;;4972338;28;20045;-62
2022/03/12 00:33:51;;;;;;;6.28;3.67;;;;;;;;;;4975824;28;20033;-64
2022/03/12 00:36:20;;;;;;;8.63;3.80;;;;;;;;;;4961460;28;20031;-62
2022/03/12 00:38:45;;;;;;;10.90;3.88;;;;;;;;;;4974621;28;20076;-61
2022/03/12 00:41:14;;;;;;;7.47;3.78;;;;;;;;;;4973101;28;20038;-62
2022/03/12 00:43:43;;;;;;;11.32;4.60;;;;;;;;;;4974872;28;20260;-67
2022/03/12 00:46:11;;;;;;;11.48;3.50;;;;;;;;;;4974580;28;20026;-61
2022/03/12 00:48:39;;;;;;;8.00;4.07;;;;;;;;;;4989270;28;20038;-64
2022/03/12 00:51:12;;;;;;;8.38;4.05;;;;;;;;;;4973022;28;20099;-66
2022/03/12 00:53:40;;;;;;;11.65;4.07;;;;;;;;;;4986058;28;20149;-64
2022/03/12 00:56:09;;;;;;;7.45;3.70;;;;;;;;;;4972471;28;20170;-63
2022/03/12 00:58:35;;;;;;;4.85;3.03;;;;;;;;;;4962270;28;20042;-65
2022/03/12 01:01:02;;;;;;;8.48;3.80;;;;;;;;;;4971930;28;20034;-63
2022/03/12 01:03:28;;;;;;;7.75;3.50;;;;;;;;;;4972668;28;20057;-64
2022/03/12 01:05:57;;;;;;;11.80;4.22;;;;;;;;;;4975028;28;20120;-62
2022/03/12 01:08:26;;;;;;;6.57;3.63;;;;;;;;;;4973461;28;20477;-62
2022/03/12 01:10:54;;;;;;;6.43;3.58;;;;;;;;;;4973594;28;20026;-62
2022/03/12 01:13:21;;;;;;;7.72;3.72;;;;;;;;;;4972119;28;20062;-63
2022/03/12 01:15:49;;;;;;;9.48;4.35;;;;;;;;;;4974642;28;20107;-62
2022/03/12 01:18:16;;;;;;;9.07;3.85;;;;;;;;;;4974895;28;20037;-63
2022/03/12 01:20:42;;;;;;;8.52;3.80;;;;;;;;;;4987322;28;20043;-64
2022/03/12 01:23:08;;;;;;;10.35;4.07;;;;;;;;;;4975408;28;20508;-62
2022/03/12 01:25:35;;;;;;;7.03;3.53;;;;;;;;;;4989328;28;20642;-63
2022/03/12 01:28:06;;;;;;;8.32;4.15;;;;;;;;;;4972957;28;20104;-63
2022/03/12 01:30:34;;;;;;;7.10;3.45;;;;;;;;;;4975277;28;20034;-63
2022/03/12 01:33:02;;;;;;;7.28;3.30;;;;;;;;;;4970829;28;20265;-64
2022/03/12 01:35:29;;;;;;;11.38;3.83;;;;;;;;;;4973267;28;21917;-63
2022/03/12 01:37:59;;;;;;;9.32;4.03;;;;;;;;;;4972396;28;20045;-64
2022/03/12 01:40:27;;;;;;;9.35;3.58;;;;;;;;;;4975249;28;20096;-63
2022/03/12 01:42:52;;;;;;;8.40;3.65;;;;;;;;;;4971132;28;20118;-63
2022/03/12 01:45:27;;;;;;;6.18;3.90;;;;;;;;;;4972792;28;20062;-62
2022/03/12 01:48:03;;;;;;;10.77;4.10;;;;;;;;;;4973540;28;20033;-63
2022/03/12 01:50:34;;;;;;;7.03;4.03;;;;;;;;;;4972121;28;20684;-61
2022/03/12 01:53:04;;;;;;;11.05;4.30;;;;;;;;;;4974986;28;20034;-62
2022/03/12 01:55:31;;;;;;;7.05;3.67;;;;;;;;;;4973922;28;20037;-63
2022/03/12 01:58:05;;;;;;;8.25;3.95;;;;;;;;;;4968789;28;20030;-65
2022/03/12 02:00:49;;;;;;;8.07;4.18;;;;;;;;;;4974038;28;20134;-62
2022/03/12 02:03:23;;;;;;;8.38;3.47;;;;;;;;;;4969092;28;20042;-62
2022/03/12 02:05:51;;;;;;;10.27;4.78;;;;;;;;;;4970790;28;21369;-63
2022/03/12 02:08:17;;;;;;;9.32;4.55;;;;;;;;;;4971232;28;20106;-62
2022/03/12 02:10:43;;;;;;;9.55;4.22;;;;;;;;;;4972448;28;20899;-64
2022/03/12 02:13:08;;;;;;;7.32;4.57;;;;;;;;;;4959470;28;20056;-63
2022/03/12 02:15:39;;;;;;;6.50;3.83;;;;;;;;;;4972691;28;20038;-62
2022/03/12 02:18:07;;;;;;;11.13;4.18;;;;;;;;;;4986488;28;20038;-63
2022/03/12 02:20:33;;;;;;;16.92;3.92;;;;;;;;;;4971293;28;20082;-62
2022/03/12 02:22:59;;;;;;;8.18;4.18;;;;;;;;;;4972932;28;20396;-63
2022/03/12 02:25:32;;;;;;;12.45;4.40;;;;;;;;;;4972582;28;20173;-63
2022/03/12 02:28:00;;;;;;;10.00;4.35;;;;;;;;;;4980615;28;20029;-63
2022/03/12 02:30:33;;;;;;;8.48;4.53;;;;;;;;;;4987239;28;20049;-65
2022/03/12 02:33:01;;;;;;;10.18;4.60;;;;;;;;;;4969704;28;20442;-63
2022/03/12 02:35:34;;;;;;;8.90;4.20;;;;;;;;;;4972543;28;20064;-64
2022/03/12 02:38:05;;;;;;;6.93;3.83;;;;;;;;;;4986413;28;20021;-64
2022/03/12 02:40:31;;;;;;;13.50;4.40;;;;;;;;;;4989093;28;20995;-62
2022/03/12 02:42:58;;;;;;;8.50;4.22;;;;;;;;;;4972225;28;20042;-63
2022/03/12 02:45:28;;;;;;;9.88;3.63;;;;;;;;;;4971337;28;20053;-62
2022/03/12 02:47:57;;;;;;;8.90;4.15;;;;;;;;;;4987689;28;22192;-63
2022/03/12 02:50:23;;;;;;;10.32;4.15;;;;;;;;;;4972175;28;20053;-65
2022/03/12 02:52:51;;;;;;;7.88;4.43;;;;;;;;;;4971591;28;20771;-62
2022/03/12 02:55:17;;;;;;;13.18;4.57;;;;;;;;;;4973302;28;20085;-62
2022/03/12 02:57:46;;;;;;;8.98;5.10;;;;;;;;;;4971515;28;20076;-63
2022/03/12 03:00:20;;;;;;;6.80;4.28;;;;;;;;;;4986395;28;20080;-62
2022/03/12 03:02:56;;;;;;;11.02;4.72;;;;;;;;;;4973062;28;22087;-62
2022/03/12 03:05:41;;;;;;;10.13;4.22;;;;;;;;;;4987341;28;20593;-62
2022/03/12 03:08:10;;;;;;;7.97;4.25;;;;;;;;;;4971896;28;22036;-62
2022/03/12 03:10:40;;;;;;;8.68;4.45;;;;;;;;;;4960860;28;20045;-63
2022/03/12 03:13:16;;;;;;;6.00;3.38;;;;;;;;;;4971117;28;20659;-62
2022/03/12 03:15:42;;;;;;;12.23;4.85;;;;;;;;;;4971854;28;21060;-64
2022/03/12 03:18:10;;;;;;;10.35;5.22;;;;;;;;;;4969264;28;20595;-63
2022/03/12 03:20:36;;;;;;;9.73;3.90;;;;;;;;;;4953982;28;20030;-62
2022/03/12 03:23:01;;;;;;;8.52;4.18;;;;;;;;;;4960067;28;20336;-64
2022/03/12 03:25:27;;;;;;;6.63;3.83;;;;;;;;;;4969814;28;20030;-62
2022/03/12 03:27:54;;;;;;;12.00;4.93;;;;;;;;;;4969449;28;20099;-62
2022/03/12 03:30:23;;;;;;;6.65;4.05;;;;;;;;;;4970706;28;21115;-64
2022/03/12 03:32:50;;;;;;;9.80;4.47;;;;;;;;;;4973573;28;20088;-62
2022/03/12 03:35:16;;;;;;;7.13;4.22;;;;;;;;;;4971642;28;20030;-63
2022/03/12 03:37:45;;;;;;;7.82;4.00;;;;;;;;;;4976134;28;20026;-62
2022/03/12 03:40:13;;;;;;;6.20;4.35;;;;;;;;;;4968556;28;21671;-64
2022/03/12 03:42:44;;;;;;;7.80;4.80;;;;;;;;;;4970655;28;20022;-63
2022/03/12 03:45:10;;;;;;;8.88;4.15;;;;;;;;;;4971462;28;20063;-64
2022/03/12 03:47:37;;;;;;;7.65;4.15;;;;;;;;;;4970772;28;20115;-63
2022/03/12 03:50:08;;;;;;;6.88;3.35;;;;;;;;;;4971931;28;20108;-63
2022/03/12 03:52:36;;;;;;;8.48;4.40;;;;;;;;;;4969060;28;20064;-64
2022/03/12 03:55:04;;;;;;;7.68;4.70;;;;;;;;;;4971933;28;20058;-64
2022/03/12 03:57:29;;;;;;;9.57;3.40;;;;;;;;;;4971553;28;21901;-63
2022/03/12 03:59:57;;;;;;;7.93;4.15;;;;;;;;;;4970253;28;20038;-62
2022/03/12 04:02:24;;;;;;;14.93;4.03;;;;;;;;;;4979197;28;20034;-63
2022/03/12 04:04:53;;;;;;;7.57;4.28;;;;;;;;;;4958552;28;20042;-64
2022/03/12 04:07:21;;;;;;;8.68;4.45;;;;;;;;;;4956657;28;20775;-64
2022/03/12 04:09:46;;;;;;;8.50;4.72;;;;;;;;;;4974759;28;20092;-63
2022/03/12 04:12:19;;;;;;;10.18;4.50;;;;;;;;;;4974897;28;20230;-64
2022/03/12 04:14:44;;;;;;;8.63;3.95;;;;;;;;;;4974121;28;20107;-65
2022/03/12 04:17:16;;;;;;;11.80;3.95;;;;;;;;;;4975500;28;20026;-64
2022/03/12 04:19:42;;;;;;;9.77;4.57;;;;;;;;;;4972609;28;21920;-63
2022/03/12 04:22:07;;;;;;;9.27;4.65;;;;;;;;;;4958360;28;20072;-63
2022/03/12 04:24:36;;;;;;;8.45;4.22;;;;;;;;;;4974966;28;20095;-64
2022/03/12 04:27:08;;;;;;;13.45;3.72;;;;;;;;;;4959284;28;20042;-63
2022/03/12 04:29:36;;;;;;;8.40;3.72;;;;;;;;;;4972351;28;20034;-63
2022/03/12 04:32:03;;;;;;;10.25;4.20;;;;;;;;;;4973967;28;20103;-64
2022/03/12 04:34:28;;;;;;;14.73;4.35;;;;;;;;;;4975417;28;20493;-64
2022/03/12 04:36:56;;;;;;;7.13;3.65;;;;;;;;;;4974048;28;20034;-65
2022/03/12 04:39:21;;;;;;;8.40;4.05;;;;;;;;;;4973318;28;20608;-65
2022/03/12 04:41:49;;;;;;;7.20;4.68;;;;;;;;;;4974478;28;20540;-64
2022/03/12 04:44:20;;;;;;;7.55;4.35;;;;;;;;;;4972291;28;20568;-65
2022/03/12 04:46:48;;;;;;;9.32;3.72;;;;;;;;;;4991885;28;20058;-64
2022/03/12 04:49:16;;;;;;;7.72;4.80;;;;;;;;;;4974632;28;20034;-64
2022/03/12 04:51:43;;;;;;;10.73;4.70;;;;;;;;;;4974443;28;20018;-66
2022/03/12 04:54:11;;;;;;;10.75;4.60;;;;;;;;;;4973422;28;20050;-62
2022/03/12 04:56:36;;;;;;;8.50;4.32;;;;;;;;;;4974685;28;22044;-62
2022/03/12 04:59:07;;;;;;;6.35;4.20;;;;;;;;;;4990112;28;20037;-63
2022/03/12 05:01:32;;;;;;;7.13;4.18;;;;;;;;;;4974754;28;20034;-63
2022/03/12 05:03:58;;;;;;;5.32;3.80;;;;;;;;;;4970136;28;22024;-63
2022/03/12 05:06:26;;;;;;;8.18;4.60;;;;;;;;;;4959468;28;20479;-64
2022/03/12 05:08:53;;;;;;;7.35;3.97;;;;;;;;;;4974332;28;20046;-63
2022/03/12 05:11:18;;;;;;;8.68;4.22;;;;;;;;;;4971741;28;20034;-63
2022/03/12 05:13:53;;;;;;;8.23;4.25;;;;;;;;;;4972185;28;20045;-64
2022/03/12 05:16:21;;;;;;;9.93;4.28;;;;;;;;;;4971606;28;20489;-64
2022/03/12 05:18:49;;;;;;;9.18;4.45;;;;;;;;;;4972931;28;20904;-65
2022/03/12 05:21:15;;;;;;;11.63;4.07;;;;;;;;;;4961247;28;20580;-64
2022/03/12 05:23:40;;;;;;;8.23;3.85;;;;;;;;;;4970951;28;20164;-64
2022/03/12 05:26:05;;;;;;;9.60;4.20;;;;;;;;;;4972994;28;20045;-64
2022/03/12 05:28:32;;;;;;;9.38;4.00;;;;;;;;;;4973273;28;20755;-63
2022/03/12 05:30:59;;;;;;;9.48;4.18;;;;;;;;;;4970226;28;20042;-62
2022/03/12 05:33:25;;;;;;;8.52;4.30;;;;;;;;;;4972749;28;20088;-64
2022/03/12 05:35:54;;;;;;;6.93;3.72;;;;;;;;;;4971995;28;20138;-64
2022/03/12 05:38:20;;;;;;;8.48;3.90;;;;;;;;;;4988758;28;20050;-63
2022/03/12 05:40:48;;;;;;;6.38;3.28;;;;;;;;;;4977986;28;20049;-63
2022/03/12 05:43:20;;;;;;;7.13;4.07;;;;;;;;;;4971725;28;20739;-63
2022/03/12 05:45:48;;;;;;;5.95;4.22;;;;;;;;;;4973355;28;20030;-63
2022/03/12 05:48:14;;;;;;;14.82;4.38;;;;;;;;;;4976603;28;20047;-64
2022/03/12 05:50:40;;;;;;;7.88;4.35;;;;;;;;;;4976969;28;20112;-63
2022/03/12 05:53:09;;;;;;;9.60;3.95;;;;;;;;;;4975889;28;20445;-64
2022/03/12 05:55:39;;;;;;;9.48;4.80;;;;;;;;;;4974111;28;20018;-63
2022/03/12 05:58:04;;;;;;;13.50;4.93;;;;;;;;;;4972332;28;20554;-64
2022/03/12 06:00:32;;;;;;;10.27;3.78;;;;;;;;;;4974800;28;20072;-63
2022/03/12 06:02:59;;;;;;;9.52;4.55;;;;;;;;;;4973223;28;20037;-64
2022/03/12 06:05:29;;;;;;;7.22;4.18;;;;;;;;;;4974182;28;20045;-64
2022/03/12 06:07:55;;;;;;;9.40;4.47;;;;;;;;;;4974657;28;20048;-62
2022/03/12 06:10:24;;;;;;;9.38;3.75;;;;;;;;;;4970423;28;20117;-62
2022/03/12 06:12:53;;;;;;;9.02;3.78;;;;;;;;;;4986396;28;20030;-64
2022/03/12 06:15:22;;;;;;;8.57;3.78;;;;;;;;;;4973406;28;20226;-62
2022/03/12 06:17:51;;;;;;;5.68;3.72;;;;;;;;;;4967276;28;20455;-63
2022/03/12 06:20:17;;;;;;;8.13;4.18;;;;;;;;;;4973210;28;20037;-63
2022/03/12 06:22:47;;;;;;;21.73;3.83;;;;;;;;;;4971608;28;20042;-63
2022/03/12 06:25:15;;;;;;;7.45;3.95;;;;;;;;;;4970383;28;20042;-63
2022/03/12 06:27:42;;;;;;;8.57;4.00;;;;;;;;;;4953621;28;20041;-63
2022/03/12 06:30:10;;;;;;;9.23;4.00;;;;;;;;;;4971534;28;21061;-63
2022/03/12 06:32:36;;;;;;;6.30;4.00;;;;;;;;;;4956445;28;20056;-63
2022/03/12 06:35:02;;;;;;;13.50;4.13;;;;;;;;;;4971306;28;21464;-62
2022/03/12 06:37:28;;;;;;;8.23;3.70;;;;;;;;;;4987859;28;20061;-65
2022/03/12 06:39:56;;;;;;;6.85;3.22;;;;;;;;;;4972301;28;20042;-64
2022/03/12 06:42:23;;;;;;;5.57;3.20;;;;;;;;;;4971667;28;20092;-64
2022/03/12 06:44:55;;;;;;;6.75;3.47;;;;;;;;;;4969693;28;20658;-64
2022/03/12 06:47:21;;;;;;;12.20;4.20;;;;;;;;;;4973058;28;20034;-65
2022/03/12 06:49:46;;;;;;;13.05;3.30;;;;;;;;;;4946556;28;20064;-63
2022/03/12 06:52:14;;;;;;;8.77;3.50;;;;;;;;;;4972036;28;20674;-63
2022/03/12 06:54:42;;;;;;;5.93;3.65;;;;;;;;;;4974189;28;20041;-64
2022/03/12 06:57:07;;;;;;;6.45;3.35;;;;;;;;;;4971890;28;20082;-63
2022/03/12 06:59:33;;;;;;;7.35;4.18;;;;;;;;;;4972091;28;20126;-64
2022/03/12 07:01:58;;;;;;;9.65;3.92;;;;;;;;;;4961678;28;20466;-63
2022/03/12 07:04:24;;;;;;;7.90;3.85;;;;;;;;;;4959741;28;20202;-65
2022/03/12 07:06:50;;;;;;;6.82;4.15;;;;;;;;;;4941792;28;21213;-66
2022/03/12 07:09:18;;;;;;;9.90;4.05;;;;;;;;;;4959793;28;20192;-63
2022/03/12 07:11:44;;;;;;;7.28;3.70;;;;;;;;;;4986909;28;20058;-64
2022/03/12 07:14:11;;;;;;;10.30;4.00;;;;;;;;;;4970607;28;20613;-63
2022/03/12 07:16:37;;;;;;;13.52;3.97;;;;;;;;;;4973803;28;20115;-64
2022/03/12 07:19:05;;;;;;;8.27;4.03;;;;;;;;;;4973073;28;20112;-63
2022/03/12 07:21:34;;;;;;;5.57;3.25;;;;;;;;;;4956239;28;20486;-63
2022/03/12 07:23:59;;;;;;;7.63;4.35;;;;;;;;;;4972487;28;20042;-64
2022/03/12 07:26:29;;;;;;;12.23;3.67;;;;;;;;;;4972046;28;20034;-63
2022/03/12 07:28:55;;;;;;;11.30;5.05;;;;;;;;;;4986708;28;20073;-65
2022/03/12 07:31:23;;;;;;;15.25;3.92;;;;;;;;;;4987306;28;20113;-65
2022/03/12 07:33:51;;;;;;;22.90;4.00;;;;;;;;;;4955612;28;21979;-64
2022/03/12 07:36:20;;;;;;;7.75;3.85;;;;;;;;;;4988429;28;20358;-63
2022/03/12 07:38:46;;;;;;;7.65;4.18;;;;;;;;;;4955312;28;20027;-63
2022/03/12 07:41:15;;;;;;;7.13;3.83;;;;;;;;;;4971858;28;20125;-64
2022/03/12 07:43:41;;;;;;;8.07;4.32;;;;;;;;;;4972631;28;20509;-64
2022/03/12 07:46:06;;;;;;;8.95;3.90;;;;;;;;;;4980333;28;20049;-65
2022/03/12 07:48:32;;;;;;;8.07;4.72;;;;;;;;;;4974619;28;20040;-65
2022/03/12 07:51:01;;;;;;;6.38;3.70;;;;;;;;;;4960845;28;20035;-64
2022/03/12 07:53:30;;;;;;;6.95;3.42;;;;;;;;;;4977960;28;20165;-65
2022/03/12 07:55:56;;;;;;;9.73;4.03;;;;;;;;;;4978410;28;20142;-66
2022/03/12 07:58:22;;;;;;;8.13;4.15;;;;;;;;;;4958958;28;20261;-66
2022/03/12 08:00:48;;;;;;;12.52;4.45;;;;;;;;;;4965181;28;20299;-64
2022/03/12 08:03:14;;;;;;;6.88;3.53;;;;;;;;;;4976024;28;20088;-64
2022/03/12 08:05:39;;;;;;;6.65;3.80;;;;;;;;;;4959215;28;20371;-65
2022/03/12 08:08:05;;;;;;;8.68;3.85;;;;;;;;;;4962667;28;20482;-65
2022/03/12 08:11:24;;;;;;;8.13;4.30;;;;;;;;;;4976849;28;20036;-65
2022/03/12 08:13:21;;;;;;;8.43;4.05;;;;;;;;;;4975830;28;20498;-65
2022/03/12 08:15:47;;;;;;;9.60;4.75;;;;;;;;;;4974707;28;20141;-67
2022/03/12 08:18:12;;;;;;;8.73;4.63;;;;;;;;;;4974734;28;20927;-64
2022/03/12 08:20:39;;;;;;;10.63;4.57;;;;;;;;;;4975886;28;20069;-62
2022/03/12 08:23:05;;;;;;;6.57;4.43;;;;;;;;;;4973232;28;20034;-62
2022/03/12 08:25:31;;;;;;;13.52;4.28;;;;;;;;;;4989321;28;20030;-62
2022/03/12 08:27:56;;;;;;;8.25;4.38;;;;;;;;;;4976527;28;20050;-64
2022/03/12 08:30:24;;;;;;;7.30;4.32;;;;;;;;;;4975008;28;20092;-63
2022/03/12 08:32:50;;;;;;;9.13;4.47;;;;;;;;;;4975649;28;20068;-66
2022/03/12 08:35:17;;;;;;;7.53;4.28;;;;;;;;;;4958585;28;20042;-64
2022/03/12 08:37:47;;;;;;;7.55;4.63;;;;;;;;;;4975251;28;20120;-64
2022/03/12 08:40:14;;;;;;;14.07;4.03;;;;;;;;;;4960298;28;20663;-65
2022/03/12 08:42:40;;;;;;;8.00;4.35;;;;;;;;;;4975522;28;20037;-63
2022/03/12 08:45:07;;;;;;;9.95;4.68;;;;;;;;;;4976370;28;20040;-64
2022/03/12 08:47:33;;;;;;;8.60;4.60;;;;;;;;;;4976380;28;20044;-64
2022/03/12 08:50:02;;;;;;;13.30;4.35;;;;;;;;;;4977144;28;20038;-67
2022/03/12 08:52:30;;;;;;;8.18;4.68;;;;;;;;;;4972941;28;20183;-65
2022/03/12 08:54:55;;;;;;;6.65;4.60;;;;;;;;;;4975790;28;20060;-66
2022/03/12 08:57:23;;;;;;;10.35;4.63;;;;;;;;;;4971106;28;21968;-65
2022/03/12 08:59:51;;;;;;;10.02;4.53;;;;;;;;;;4972509;28;20038;-67
2022/03/12 09:02:17;;;;;;;7.63;4.32;;;;;;;;;;4956200;28;20149;-65
2022/03/12 09:04:42;;;;;;;11.65;4.97;;;;;;;;;;4972798;28;20052;-66
2022/03/12 09:07:08;;;;;;;8.18;4.63;;;;;;;;;;4974381;28;20524;-63
2022/03/12 09:09:34;;;;;;;7.45;4.25;;;;;;;;;;4971089;28;21960;-63
2022/03/12 09:12:00;;;;;;;9.45;4.80;;;;;;;;;;4959070;28;20064;-63
2022/03/12 09:14:28;;;;;;;8.73;4.68;;;;;;;;;;4973824;28;20473;-63
2022/03/12 09:16:54;;;;;;;7.88;4.43;;;;;;;;;;4973332;28;20057;-63
2022/03/12 09:19:19;;;;;;;6.32;4.50;;;;;;;;;;4972152;28;20141;-63
2022/03/12 09:21:47;;;;;;;7.47;4.78;;;;;;;;;;4970358;28;20623;-66
2022/03/12 09:24:13;;;;;;;7.93;4.90;;;;;;;;;;4972725;28;20145;-63
2022/03/12 09:26:39;;;;;;;8.70;4.55;;;;;;;;;;4973154;28;20050;-63
2022/03/12 09:29:04;;;;;;;9.60;4.82;;;;;;;;;;4971643;28;20050;-64
2022/03/12 09:31:33;;;;;;;7.78;4.65;;;;;;;;;;4958865;28;20026;-62
2022/03/12 09:34:00;;;;;;;9.13;4.75;;;;;;;;;;4969605;28;20038;-64
2022/03/12 09:36:26;;;;;;;11.77;4.80;;;;;;;;;;4954186;28;20056;-63
2022/03/12 09:38:51;;;;;;;13.65;5.03;;;;;;;;;;4973530;28;20030;-63
2022/03/12 09:41:17;;;;;;;8.43;4.75;;;;;;;;;;4983984;28;20034;-64
2022/03/12 09:43:42;;;;;;;9.07;5.07;;;;;;;;;;4961027;28;20041;-62
2022/03/12 09:46:08;;;;;;;8.95;4.78;;;;;;;;;;4972129;28;20041;-63
2022/03/12 09:48:33;;;;;;;10.38;5.40;;;;;;;;;;4969134;28;20458;-63
2022/03/12 09:50:59;;;;;;;8.63;4.85;;;;;;;;;;4989427;28;20038;-63
2022/03/12 09:53:24;;;;;;;7.45;4.43;;;;;;;;;;4971258;28;20046;-63
2022/03/12 09:55:50;;;;;;;9.13;5.30;;;;;;;;;;4974195;28;20041;-63
2022/03/12 09:58:15;;;;;;;9.57;5.20;;;;;;;;;;4967715;28;20038;-64
2022/03/12 10:00:41;;;;;;;9.63;5.03;;;;;;;;;;4969688;28;20176;-62
2022/03/12 10:03:06;;;;;;;6.60;4.60;;;;;;;;;;4971058;28;20140;-62
2022/03/12 10:05:34;;;;;;;7.10;4.65;;;;;;;;;;4973776;28;20117;-66
2022/03/12 10:08:00;;;;;;;7.78;4.90;;;;;;;;;;4969638;28;20809;-62
2022/03/12 10:10:26;;;;;;;8.27;4.80;;;;;;;;;;4972288;28;20038;-64
2022/03/12 10:12:52;;;;;;;10.23;4.80;;;;;;;;;;4985278;28;20493;-63
2022/03/12 10:15:18;;;;;;;8.57;4.93;;;;;;;;;;4986590;28;20041;-63
2022/03/12 10:17:45;;;;;;;8.32;4.82;;;;;;;;;;4968855;28;20034;-61
2022/03/12 10:20:11;;;;;;;8.48;4.72;;;;;;;;;;4984594;28;20121;-61
2022/03/12 10:22:40;;;;;;;10.15;4.90;;;;;;;;;;4954775;28;20054;-63
2022/03/12 10:25:06;;;;;;;9.95;5.03;;;;;;;;;;4971267;28;20173;-64
2022/03/12 10:27:33;;;;;;;9.82;4.90;;;;;;;;;;4970727;28;20576;-65
2022/03/12 10:29:59;;;;;;;10.27;4.35;;;;;;;;;;4980817;28;20225;-64
2022/03/12 10:32:26;;;;;;;6.18;4.35;;;;;;;;;;4952941;28;20825;-62
2022/03/12 10:34:53;;;;;;;8.27;4.80;;;;;;;;;;4971501;28;20030;-63
2022/03/12 10:37:20;;;;;;;12.63;4.55;;;;;;;;;;4956399;28;20696;-62
2022/03/12 10:39:47;;;;;;;8.45;4.85;;;;;;;;;;4969761;28;20449;-64
2022/03/12 10:42:14;;;;;;;8.35;3.92;;;;;;;;;;4968153;28;20392;-63
2022/03/12 10:44:40;;;;;;;10.75;4.75;;;;;;;;;;4969049;28;20522;-64
2022/03/12 10:47:14;;;;;;;7.20;4.70;;;;;;;;;;4970035;28;20056;-63
2022/03/12 10:49:53;;;;;;;8.80;4.38;;;;;;;;;;4969482;28;20227;-63
2022/03/12 10:52:19;;;;;;;9.82;4.30;;;;;;;;;;4969526;28;20113;-63
2022/03/12 10:58:00;;;;;;;8.95;4.53;;;;;;;;;;5004774;22;1181650;-64
2022/03/12 11:00:26;;;;;;;10.05;4.40;;;;;;;;;;4982776;28;20057;-63
2022/03/12 11:02:53;;;;;;;7.43;4.45;;;;;;;;;;4986769;28;20030;-63
2022/03/12 11:05:20;;;;;;;12.80;4.82;;;;;;;;;;4972422;28;20034;-64
2022/03/12 11:07:45;;;;;;;8.55;4.40;;;;;;;;;;4971750;28;20022;-64
2022/03/12 11:10:19;;;;;;;7.63;4.47;;;;;;;;;;4975552;28;20034;-63
2022/03/12 11:12:51;;;;;;;7.32;4.50;;;;;;;;;;4976128;28;20042;-62
2022/03/12 11:15:16;;;;;;;13.35;4.95;;;;;;;;;;4975764;28;20393;-64
2022/03/12 11:17:55;;;;;;;8.45;4.47;;;;;;;;;;4975945;28;20031;-64
2022/03/12 11:20:21;;;;;;;9.15;4.82;;;;;;;;;;4975554;28;20119;-62
2022/03/12 11:23:08;;;;;;;7.55;4.32;;;;;;;;;;4974829;28;20038;-62
2022/03/12 11:25:38;;;;;;;8.00;4.20;;;;;;;;;;4971988;28;20039;-63
2022/03/12 11:31:44;;;;;;;5.45;3.35;;;;;;;;;;4967774;28;22156;-63
2022/03/12 11:34:19;;;;;;;8.30;3.58;;;;;;;;;;4966585;28;20065;-63
2022/03/12 11:36:44;;;;;;;5.45;3.40;;;;;;;;;;4951592;28;20037;-64
2022/03/12 11:39:21;;;;;;;6.70;3.53;;;;;;;;;;4977427;28;20034;-63
2022/03/12 11:42:18;;;;;;;6.82;3.42;;;;;;;;;;4968087;28;20038;-62
2022/03/12 11:44:47;;;;;;;6.78;3.50;;;;;;;;;;4968345;28;20069;-63
2022/03/12 11:47:15;;;;;;;4.80;2.90;;;;;;;;;;4965922;28;20027;-64
2022/03/12 11:50:18;;;;;;;6.32;3.45;;;;;;;;;;4983344;28;20034;-63
2022/03/12 11:52:46;;;;;;;5.13;3.10;;;;;;;;;;4968577;28;20035;-62
2022/03/12 11:55:28;;;;;;;7.10;3.90;;;;;;;;;;4959189;28;20035;-62
2022/03/12 11:57:56;;;;;;;6.13;3.47;;;;;;;;;;4981712;28;20618;-63
2022/03/12 12:00:24;;;;;;;5.60;3.33;;;;;;;;;;4962467;28;21603;-61
2022/03/12 12:02:52;;;;;;;5.40;3.28;;;;;;;;;;4968370;28;20469;-63
2022/03/12 12:05:19;;;;;;;5.78;3.38;;;;;;;;;;4977440;28;21403;-63
2022/03/12 12:07:45;;;;;;;3.75;3.00;;;;;;;;;;4968381;28;20038;-61
2022/03/12 12:10:25;;;;;;;5.68;3.00;;;;;;;;;;4961363;28;20788;-62
2022/03/12 12:12:51;;;;;;;5.03;3.22;;;;;;;;;;4967109;28;20038;-63
2022/03/12 12:15:56;;;;;;;4.30;2.75;;;;;;;;;;4979080;28;20075;-63
2022/03/12 12:18:24;;;;;;;6.47;3.13;;;;;;;;;;4960912;28;20474;-63
2022/03/12 12:21:13;;;;;;;6.47;3.20;;;;;;;;;;4980518;28;20042;-63
2022/03/12 12:23:39;;;;;;;4.72;3.50;;;;;;;;;;4981751;28;20205;-63
2022/03/12 12:26:09;;;;;;;6.03;3.00;;;;;;;;;;4961670;28;20037;-62
2022/03/12 12:32:13;;;;;;;4.83;3.43;;;;;;;;;;4967118;28;20100;-63
2022/03/12 12:34:58;;;;;;;7.55;3.17;;;;;;;;;;4979246;28;20916;-62
2022/03/12 12:37:24;;;;;;;;;;;;;;;;;;4961803;28;21499;-62
2022/03/12 12:40:10;;;;;;;5.82;2.88;;;;;;;;;;4967831;28;19914;-62
2022/03/12 12:42:41;;;;;;;5.03;3.25;;;;;;;;;;4965787;28;20162;-63
2022/03/12 12:45:10;;;;;;;5.97;3.30;;;;;;;;;;4967307;28;20030;-63
2022/03/12 12:47:43;;;;;;;6.07;2.95;;;;;;;;;;4963864;28;20857;-62
2022/03/12 12:50:25;;;;;;;3.58;2.60;;;;;;;;;;4966241;28;20026;-64
2022/03/12 12:56:23;;;;;;;4.35;2.85;;;;;;;;;;4964077;28;22115;-63
2022/03/12 12:58:51;;;;;;;4.20;2.88;;;;;;;;;;4966311;28;20037;-64
2022/03/12 13:01:20;;;;;;;7.30;2.97;;;;;;;;;;4981606;28;20113;-63
2022/03/12 13:03:50;;;;;;;9.52;2.72;;;;;;;;;;4960629;28;20248;-63
2022/03/12 13:06:34;;;;;;;6.80;3.40;;;;;;;;;;4980717;28;20124;-62
2022/03/12 13:09:02;;;;;;;6.87;3.23;;;;;;;;;;4981522;28;20033;-62
2022/03/12 13:12:04;;;;;;;5.93;2.90;;;;;;;;;;4967108;28;20045;-64
2022/03/12 13:14:46;;;;;;;5.03;2.83;;;;;;;;;;4961816;28;20043;-63
2022/03/12 13:17:27;;;;;;;5.38;2.90;;;;;;;;;;4965839;28;20121;-62
2022/03/12 13:19:59;;;;;;;5.82;2.92;;;;;;;;;;4966298;28;20037;-63
2022/03/12 13:25:43;;;;;;;4.47;2.55;;;;;;;;;;4980319;28;20104;-62
2022/03/12 13:28:12;;;;;;;6.00;2.35;;;;;;;;;;4942858;28;21430;-63
2022/03/12 13:30:37;;;;;;;2.90;2.63;;;;;;;;;;4976279;28;20049;-62
2022/03/12 13:33:06;;;;;;;8.50;2.72;;;;;;;;;;4943646;28;20038;-63
2022/03/12 13:35:35;;;;;;;6.38;2.45;;;;;;;;;;4978606;28;20033;-62
2022/03/12 13:38:01;;;;;;;9.07;2.33;;;;;;;;;;4963399;28;20153;-63
2022/03/12 13:40:28;;;;;;;5.30;2.28;;;;;;;;;;4974014;28;20335;-62
2022/03/12 13:43:00;;;;;;;4.60;2.00;;;;;;;;;;4965143;28;20026;-62
2022/03/12 13:45:29;;;;;;;4.00;2.28;;;;;;;;;;4978341;28;20161;-64
2022/03/12 13:48:01;;;;;;;6.13;2.70;;;;;;;;;;4979997;28;20057;-62
2022/03/12 13:50:31;;;;;;;5.72;3.45;;;;;;;;;;4977634;28;20153;-64
2022/03/12 13:53:00;;;;;;;6.03;3.80;;;;;;;;;;4965602;28;20029;-64
2022/03/12 13:55:35;;;;;;;7.45;3.60;;;;;;;;;;4963339;28;20122;-63
2022/03/12 13:58:04;;;;;;;6.45;3.33;;;;;;;;;;4974616;28;20062;-64
2022/03/12 14:00:32;;;;;;;6.53;3.42;;;;;;;;;;4949607;28;20132;-64
2022/03/12 14:02:58;;;;;;;6.95;3.90;;;;;;;;;;4977368;28;20049;-64
2022/03/12 14:05:25;;;;;;;5.85;3.00;;;;;;;;;;4945902;28;20042;-63
2022/03/12 14:07:54;;;;;;;6.60;3.17;;;;;;;;;;4947486;28;20031;-63
2022/03/12 14:10:22;;;;;;;5.28;3.45;;;;;;;;;;4964597;28;20484;-63
2022/03/12 14:12:56;;;;;;;9.68;3.38;;;;;;;;;;4978425;28;20036;-64
2022/03/12 14:15:25;;;;;;;;;;;;;;;;;;4964811;28;20042;-63
2022/03/12 14:17:54;;;;;;;3.67;2.83;;;;;;;;;;4965749;28;20356;-64
2022/03/12 14:20:19;;;;;;;6.75;3.55;;;;;;;;;;4963073;28;20038;-63
2022/03/12 14:22:56;;;;;;;6.78;3.50;;;;;;;;;;4963238;28;20831;-63
2022/03/12 14:25:28;;;;;;;10.70;3.17;;;;;;;;;;4966404;28;20037;-62
2022/03/12 14:27:59;;;;;;;;;;;;;;;;;;4964139;28;20474;-64
2022/03/12 14:34:01;;;;;;;8.48;3.85;;;;;;;;;;4964231;28;20029;-64
2022/03/12 14:36:27;;;;;;;10.02;3.72;;;;;;;;;;4958864;28;20642;-63
2022/03/12 14:38:52;;;;;;;10.00;3.00;;;;;;;;;;4963459;28;20109;-64
2022/03/12 14:41:21;;;;;;;10.73;3.85;;;;;;;;;;4962136;28;20045;-64
2022/03/12 14:43:53;;;;;;;4.38;3.28;;;;;;;;;;4946631;28;20045;-61
2022/03/12 14:46:46;;;;;;;4.13;2.85;;;;;;;;;;4974640;28;20066;-62
2022/03/12 14:49:22;;;;;;;7.60;3.38;;;;;;;;;;4958951;28;20030;-63
2022/03/12 14:51:54;;;;;;;11.85;2.92;;;;;;;;;;4965040;28;20030;-63
2022/03/12 14:54:24;;;;;;;6.85;2.70;;;;;;;;;;4948109;28;20978;-63
2022/03/12 15:00:42;;;;;;;6.85;3.30;;;;;;;;;;4964147;28;20839;-64
2022/03/12 15:03:10;;;;;;;6.22;2.65;;;;;;;;;;4962961;28;21716;-63
2022/03/12 15:05:39;;;;;;;5.68;2.58;;;;;;;;;;4944964;28;20034;-63
2022/03/12 15:08:09;;;;;;;5.95;3.20;;;;;;;;;;4963922;28;20030;-63
2022/03/12 15:10:36;;;;;;;4.63;3.25;;;;;;;;;;4973090;28;21194;-63
2022/03/12 15:13:02;;;;;;;6.72;2.70;;;;;;;;;;4974104;28;20033;-62
2022/03/12 15:15:32;;;;;;;8.68;3.63;;;;;;;;;;4961315;28;20030;-62